sensor_id;sensor_type;location;lat;lon;timestamp;pressure;altitude;pressure_sealevel;temperature;humidity
4972;BME280;2501;51.214;6.768;2023-02-18T00:01:39;101993.00;;;11.04;97.05
4972;BME280;2501;51.214;6.768;2023-02-18T00:04:11;101993.03;;;11.06;96.87
4972;BME280;2501;51.214;6.768;2023-02-18T00:06:39;101989.06;;;10.87;96.80
4972;BME280;2501;51.214;6.768;2023-02-18T00:09:09;101989.53;;;11.05;96.99
4972;BME280;2501;51.214;6.768;2023-02-18T00:11:38;101983.41;;;11.06;96.80
4972;BME280;2501;51.214;6.768;2023-02-18T00:14:10;101975.59;;;11.09;96.94
4972;BME280;2501;51.214;6.768;2023-02-18T00:16:39;101982.38;;;11.00;96.92
4972;BME280;2501;51.214;6.768;2023-02-18T00:19:14;101970.34;;;11.09;96.89
4972;BME280;2501;51.214;6.768;2023-02-18T00:21:43;101964.94;;;11.02;96.99
4972;BME280;2501;51.214;6.768;2023-02-18T00:24:13;101972.09;;;11.10;97.08
4972;BME280;2501;51.214;6.768;2023-02-18T00:26:43;101971.22;;;11.10;96.81
4972;BME280;2501;51.214;6.768;2023-02-18T00:29:11;101963.09;;;10.99;97.20
4972;BME280;2501;51.214;6.768;2023-02-18T00:31:40;101950.97;;;11.04;97.11
4972;BME280;2501;51.214;6.768;2023-02-18T00:34:09;101951.56;;;10.93;97.58
4972;BME280;2501;51.214;6.768;2023-02-18T00:36:41;101946.22;;;10.88;97.51
4972;BME280;2501;51.214;6.768;2023-02-18T00:39:10;101942.75;;;10.89;97.76
4972;BME280;2501;51.214;6.768;2023-02-18T00:41:39;101945.66;;;11.01;97.74
4972;BME280;2501;51.214;6.768;2023-02-18T00:44:08;101950.06;;;11.02;97.75
4972;BME280;2501;51.214;6.768;2023-02-18T00:46:37;101945.69;;;11.03;97.54
4972;BME280;2501;51.214;6.768;2023-02-18T00:49:06;101945.38;;;10.89;98.31
4972;BME280;2501;51.214;6.768;2023-02-18T00:51:35;101948.06;;;10.92;98.70
4972;BME280;2501;51.214;6.768;2023-02-18T00:54:06;101946.50;;;11.00;98.31
4972;BME280;2501;51.214;6.768;2023-02-18T00:56:34;101936.72;;;10.93;98.04
4972;BME280;2501;51.214;6.768;2023-02-18T00:59:03;101942.66;;;10.85;98.38
4972;BME280;2501;51.214;6.768;2023-02-18T01:01:31;101932.19;;;10.86;99.20
4972;BME280;2501;51.214;6.768;2023-02-18T01:04:00;101936.66;;;10.90;98.78
4972;BME280;2501;51.214;6.768;2023-02-18T01:06:28;101924.72;;;11.04;98.61
4972;BME280;2501;51.214;6.768;2023-02-18T01:08:57;101926.59;;;11.10;98.12
4972;BME280;2501;51.214;6.768;2023-02-18T01:11:28;101920.09;;;10.94;98.38
4972;BME280;2501;51.214;6.768;2023-02-18T01:13:56;101919.25;;;10.95;98.21
4972;BME280;2501;51.214;6.768;2023-02-18T01:16:24;101908.69;;;10.92;98.33
4972;BME280;2501;51.214;6.768;2023-02-18T01:18:53;101917.53;;;10.96;98.26
4972;BME280;2501;51.214;6.768;2023-02-18T01:21:21;101916.78;;;11.01;97.84
4972;BME280;2501;51.214;6.768;2023-02-18T01:23:50;101916.44;;;10.86;97.87
4972;BME280;2501;51.214;6.768;2023-02-18T01:26:18;101914.84;;;10.94;97.86
4972;BME280;2501;51.214;6.768;2023-02-18T01:28:49;101914.03;;;10.97;97.61
4972;BME280;2501;51.214;6.768;2023-02-18T01:31:17;101916.78;;;11.01;97.69
4972;BME280;2501;51.214;6.768;2023-02-18T01:33:46;101912.97;;;10.87;97.40
4972;BME280;2501;51.214;6.768;2023-02-18T01:36:16;101912.88;;;10.84;97.47
4972;BME280;2501;51.214;6.768;2023-02-18T01:38:45;101903.88;;;10.73;97.82
4972;BME280;2501;51.214;6.768;2023-02-18T01:41:13;101909.94;;;10.70;97.94
4972;BME280;2501;51.214;6.768;2023-02-18T01:43:41;101896.44;;;10.93;97.91
4972;BME280;2501;51.214;6.768;2023-02-18T01:46:17;101892.94;;;10.91;98.10
4972;BME280;2501;51.214;6.768;2023-02-18T01:48:49;101890.00;;;10.78;97.72
4972;BME280;2501;51.214;6.768;2023-02-18T01:51:21;101893.28;;;10.68;98.03
4972;BME280;2501;51.214;6.768;2023-02-18T01:53:54;101887.34;;;10.77;98.49
4972;BME280;2501;51.214;6.768;2023-02-18T01:56:27;101892.66;;;10.80;98.98
4972;BME280;2501;51.214;6.768;2023-02-18T01:58:58;101884.13;;;10.89;98.54
4972;BME280;2501;51.214;6.768;2023-02-18T02:01:31;101878.78;;;10.84;98.34
4972;BME280;2501;51.214;6.768;2023-02-18T02:04:00;101876.38;;;10.95;98.43
4972;BME280;2501;51.214;6.768;2023-02-18T02:06:28;101882.84;;;10.71;99.11
4972;BME280;2501;51.214;6.768;2023-02-18T02:08:58;101875.41;;;10.91;99.09
4972;BME280;2501;51.214;6.768;2023-02-18T02:11:55;101883.06;;;10.80;99.53
4972;BME280;2501;51.214;6.768;2023-02-18T02:14:39;101885.56;;;10.76;100.00
4972;BME280;2501;51.214;6.768;2023-02-18T02:17:19;101874.72;;;10.61;100.00
4972;BME280;2501;51.214;6.768;2023-02-18T02:20:18;101867.78;;;10.63;100.00
4972;BME280;2501;51.214;6.768;2023-02-18T02:23:31;101869.00;;;10.41;100.00
4972;BME280;2501;51.214;6.768;2023-02-18T02:26:26;101860.00;;;10.67;100.00
4972;BME280;2501;51.214;6.768;2023-02-18T02:29:38;101852.38;;;10.78;100.00
4972;BME280;2501;51.214;6.768;2023-02-18T02:32:49;101854.13;;;10.41;100.00
4972;BME280;2501;51.214;6.768;2023-02-18T02:35:25;101841.03;;;10.41;100.00
4972;BME280;2501;51.214;6.768;2023-02-18T02:38:01;101847.41;;;10.17;100.00
4972;BME280;2501;51.214;6.768;2023-02-18T02:40:35;101833.25;;;10.10;100.00
4972;BME280;2501;51.214;6.768;2023-02-18T02:43:12;101833.75;;;9.95;100.00
4972;BME280;2501;51.214;6.768;2023-02-18T02:45:49;101835.94;;;10.13;100.00
4972;BME280;2501;51.214;6.768;2023-02-18T02:48:28;101841.16;;;10.46;100.00
4972;BME280;2501;51.214;6.768;2023-02-18T02:51:09;101835.94;;;10.48;100.00
4972;BME280;2501;51.214;6.768;2023-02-18T02:53:40;101839.41;;;10.46;100.00
4972;BME280;2501;51.214;6.768;2023-02-18T02:56:13;101840.50;;;10.55;100.00
4972;BME280;2501;51.214;6.768;2023-02-18T02:58:42;101843.16;;;10.20;100.00
4972;BME280;2501;51.214;6.768;2023-02-18T03:01:22;101831.66;;;10.17;100.00
4972;BME280;2501;51.214;6.768;2023-02-18T03:04:21;101823.06;;;10.21;100.00
4972;BME280;2501;51.214;6.768;2023-02-18T03:07:10;101826.50;;;10.54;100.00
4972;BME280;2501;51.214;6.768;2023-02-18T03:10:00;101819.88;;;10.34;100.00
4972;BME280;2501;51.214;6.768;2023-02-18T03:12:36;101805.13;;;10.37;100.00
4972;BME280;2501;51.214;6.768;2023-02-18T03:15:15;101807.50;;;10.66;100.00
4972;BME280;2501;51.214;6.768;2023-02-18T03:17:54;101803.00;;;10.60;100.00
4972;BME280;2501;51.214;6.768;2023-02-18T03:20:26;101806.50;;;10.61;100.00
4972;BME280;2501;51.214;6.768;2023-02-18T03:22:59;101792.88;;;10.77;100.00
4972;BME280;2501;51.214;6.768;2023-02-18T03:25:31;101812.06;;;10.74;100.00
4972;BME280;2501;51.214;6.768;2023-02-18T03:28:03;101803.16;;;10.66;100.00
4972;BME280;2501;51.214;6.768;2023-02-18T03:30:37;101800.88;;;10.44;100.00
4972;BME280;2501;51.214;6.768;2023-02-18T03:33:09;101804.31;;;10.41;100.00
4972;BME280;2501;51.214;6.768;2023-02-18T03:35:39;101793.81;;;10.41;100.00
4972;BME280;2501;51.214;6.768;2023-02-18T03:38:15;101797.41;;;10.45;100.00
4972;BME280;2501;51.214;6.768;2023-02-18T03:40:47;101785.72;;;10.31;100.00
4972;BME280;2501;51.214;6.768;2023-02-18T03:43:16;101789.00;;;10.21;100.00
4972;BME280;2501;51.214;6.768;2023-02-18T03:45:45;101773.84;;;10.46;100.00
4972;BME280;2501;51.214;6.768;2023-02-18T03:48:13;101781.19;;;10.25;100.00
4972;BME280;2501;51.214;6.768;2023-02-18T03:50:42;101777.94;;;9.99;100.00
4972;BME280;2501;51.214;6.768;2023-02-18T03:53:13;101769.31;;;10.03;100.00
4972;BME280;2501;51.214;6.768;2023-02-18T03:55:41;101759.09;;;10.16;100.00
4972;BME280;2501;51.214;6.768;2023-02-18T03:58:10;101754.91;;;9.88;100.00
4972;BME280;2501;51.214;6.768;2023-02-18T04:00:38;101747.41;;;10.01;100.00
4972;BME280;2501;51.214;6.768;2023-02-18T04:03:06;101744.88;;;10.06;100.00
4972;BME280;2501;51.214;6.768;2023-02-18T04:05:35;101754.16;;;9.92;100.00
4972;BME280;2501;51.214;6.768;2023-02-18T04:08:04;101751.69;;;9.98;100.00
4972;BME280;2501;51.214;6.768;2023-02-18T04:10:35;101746.13;;;9.84;100.00
4972;BME280;2501;51.214;6.768;2023-02-18T04:13:04;101739.91;;;9.81;100.00
4972;BME280;2501;51.214;6.768;2023-02-18T04:15:32;101743.47;;;9.83;100.00
4972;BME280;2501;51.214;6.768;2023-02-18T04:18:01;101737.00;;;9.68;100.00
4972;BME280;2501;51.214;6.768;2023-02-18T04:20:30;101736.63;;;9.89;100.00
4972;BME280;2501;51.214;6.768;2023-02-18T04:22:58;101739.75;;;9.74;100.00
4972;BME280;2501;51.214;6.768;2023-02-18T04:25:27;101732.22;;;9.88;100.00
4972;BME280;2501;51.214;6.768;2023-02-18T04:27:58;101736.38;;;9.78;100.00
4972;BME280;2501;51.214;6.768;2023-02-18T04:30:26;101736.28;;;9.75;100.00
4972;BME280;2501;51.214;6.768;2023-02-18T04:32:55;101729.44;;;9.81;100.00
4972;BME280;2501;51.214;6.768;2023-02-18T04:35:23;101733.50;;;10.04;100.00
4972;BME280;2501;51.214;6.768;2023-02-18T04:37:52;101722.34;;;9.76;100.00
4972;BME280;2501;51.214;6.768;2023-02-18T04:40:23;101730.13;;;9.73;100.00
4972;BME280;2501;51.214;6.768;2023-02-18T04:42:58;101728.47;;;9.77;100.00
4972;BME280;2501;51.214;6.768;2023-02-18T04:45:27;101724.28;;;9.84;100.00
4972;BME280;2501;51.214;6.768;2023-02-18T04:47:56;101710.56;;;9.59;100.00
4972;BME280;2501;51.214;6.768;2023-02-18T04:50:24;101709.50;;;9.87;100.00
4972;BME280;2501;51.214;6.768;2023-02-18T04:52:52;101724.03;;;9.74;100.00
4972;BME280;2501;51.214;6.768;2023-02-18T04:55:21;101711.66;;;9.67;100.00
4972;BME280;2501;51.214;6.768;2023-02-18T04:57:49;101716.25;;;9.77;100.00
4972;BME280;2501;51.214;6.768;2023-02-18T05:00:21;101707.06;;;9.59;100.00
4972;BME280;2501;51.214;6.768;2023-02-18T05:02:49;101704.84;;;9.75;100.00
4972;BME280;2501;51.214;6.768;2023-02-18T05:05:18;101707.28;;;9.68;100.00
4972;BME280;2501;51.214;6.768;2023-02-18T05:07:46;101706.28;;;9.63;100.00
4972;BME280;2501;51.214;6.768;2023-02-18T05:10:16;101701.72;;;9.56;100.00
4972;BME280;2501;51.214;6.768;2023-02-18T05:12:45;101703.66;;;9.63;100.00
4972;BME280;2501;51.214;6.768;2023-02-18T05:15:13;101705.19;;;9.55;100.00
4972;BME280;2501;51.214;6.768;2023-02-18T05:17:44;101704.34;;;9.56;100.00
4972;BME280;2501;51.214;6.768;2023-02-18T05:20:13;101699.34;;;9.65;100.00
4972;BME280;2501;51.214;6.768;2023-02-18T05:22:41;101703.50;;;9.57;100.00
4972;BME280;2501;51.214;6.768;2023-02-18T05:25:10;101692.34;;;9.64;100.00
4972;BME280;2501;51.214;6.768;2023-02-18T05:27:38;101685.25;;;9.60;100.00
4972;BME280;2501;51.214;6.768;2023-02-18T05:30:07;101683.31;;;9.51;100.00
4972;BME280;2501;51.214;6.768;2023-02-18T05:32:36;101660.63;;;9.53;100.00
4972;BME280;2501;51.214;6.768;2023-02-18T05:35:08;101658.84;;;9.51;100.00
4972;BME280;2501;51.214;6.768;2023-02-18T05:37:36;101670.06;;;9.45;100.00
4972;BME280;2501;51.214;6.768;2023-02-18T05:40:06;101653.66;;;9.54;100.00
4972;BME280;2501;51.214;6.768;2023-02-18T05:42:34;101654.59;;;9.56;100.00
4972;BME280;2501;51.214;6.768;2023-02-18T05:45:03;101639.75;;;9.56;100.00
4972;BME280;2501;51.214;6.768;2023-02-18T05:47:32;101652.97;;;9.61;100.00
4972;BME280;2501;51.214;6.768;2023-02-18T05:50:00;101634.44;;;9.52;100.00
4972;BME280;2501;51.214;6.768;2023-02-18T05:52:31;101641.31;;;9.84;100.00
4972;BME280;2501;51.214;6.768;2023-02-18T05:55:00;101647.84;;;9.65;100.00
4972;BME280;2501;51.214;6.768;2023-02-18T05:57:28;101635.00;;;9.76;100.00
4972;BME280;2501;51.214;6.768;2023-02-18T05:59:57;101633.06;;;9.67;100.00
4972;BME280;2501;51.214;6.768;2023-02-18T06:02:25;101633.59;;;9.54;100.00
4972;BME280;2501;51.214;6.768;2023-02-18T06:04:54;101636.03;;;9.83;100.00
4972;BME280;2501;51.214;6.768;2023-02-18T06:07:22;101641.03;;;9.73;100.00
4972;BME280;2501;51.214;6.768;2023-02-18T06:09:53;101637.22;;;9.59;100.00
4972;BME280;2501;51.214;6.768;2023-02-18T06:12:22;101628.72;;;9.68;100.00
4972;BME280;2501;51.214;6.768;2023-02-18T06:14:50;101629.66;;;9.71;100.00
4972;BME280;2501;51.214;6.768;2023-02-18T06:17:18;101635.06;;;9.79;100.00
4972;BME280;2501;51.214;6.768;2023-02-18T06:19:47;101623.03;;;9.87;100.00
4972;BME280;2501;51.214;6.768;2023-02-18T06:22:16;101637.19;;;9.58;100.00
4972;BME280;2501;51.214;6.768;2023-02-18T06:24:44;101633.81;;;9.99;100.00
4972;BME280;2501;51.214;6.768;2023-02-18T06:27:15;101630.88;;;9.86;100.00
4972;BME280;2501;51.214;6.768;2023-02-18T06:29:44;101637.97;;;9.91;100.00
4972;BME280;2501;51.214;6.768;2023-02-18T06:32:12;101629.47;;;10.01;100.00
4972;BME280;2501;51.214;6.768;2023-02-18T06:34:41;101635.19;;;9.84;100.00
4972;BME280;2501;51.214;6.768;2023-02-18T06:37:09;101633.53;;;9.89;100.00
4972;BME280;2501;51.214;6.768;2023-02-18T06:39:37;101629.41;;;9.98;100.00
4972;BME280;2501;51.214;6.768;2023-02-18T06:42:06;101628.03;;;10.16;100.00
4972;BME280;2501;51.214;6.768;2023-02-18T06:44:37;101633.84;;;10.01;100.00
4972;BME280;2501;51.214;6.768;2023-02-18T06:47:06;101617.25;;;10.02;100.00
4972;BME280;2501;51.214;6.768;2023-02-18T06:49:34;101622.84;;;10.17;100.00
4972;BME280;2501;51.214;6.768;2023-02-18T06:52:03;101641.47;;;10.29;100.00
4972;BME280;2501;51.214;6.768;2023-02-18T06:54:33;101630.25;;;10.36;100.00
4972;BME280;2501;51.214;6.768;2023-02-18T06:57:01;101626.97;;;10.46;100.00
4972;BME280;2501;51.214;6.768;2023-02-18T06:59:30;101644.16;;;10.32;100.00
4972;BME280;2501;51.214;6.768;2023-02-18T07:02:01;101642.56;;;10.39;100.00
4972;BME280;2501;51.214;6.768;2023-02-18T07:04:29;101647.03;;;10.44;100.00
4972;BME280;2501;51.214;6.768;2023-02-18T07:06:57;101652.19;;;10.41;100.00
4972;BME280;2501;51.214;6.768;2023-02-18T07:09:26;101651.28;;;10.38;100.00
4972;BME280;2501;51.214;6.768;2023-02-18T07:11:54;101664.50;;;10.44;99.87
4972;BME280;2501;51.214;6.768;2023-02-18T07:14:22;101655.75;;;10.43;99.09
4972;BME280;2501;51.214;6.768;2023-02-18T07:16:52;101653.97;;;10.42;99.04
4972;BME280;2501;51.214;6.768;2023-02-18T07:19:23;101658.13;;;10.31;98.49
4972;BME280;2501;51.214;6.768;2023-02-18T07:21:52;101644.25;;;10.37;98.20
4972;BME280;2501;51.214;6.768;2023-02-18T07:24:22;101643.25;;;10.30;98.35
4972;BME280;2501;51.214;6.768;2023-02-18T07:26:50;101639.56;;;10.22;98.43
4972;BME280;2501;51.214;6.768;2023-02-18T07:29:19;101641.56;;;10.34;98.38
4972;BME280;2501;51.214;6.768;2023-02-18T07:31:47;101634.91;;;10.50;98.77
4972;BME280;2501;51.214;6.768;2023-02-18T07:34:16;101644.28;;;10.40;98.62
4972;BME280;2501;51.214;6.768;2023-02-18T07:36:47;101652.00;;;10.31;98.85
4972;BME280;2501;51.214;6.768;2023-02-18T07:39:16;101653.75;;;10.32;99.92
4972;BME280;2501;51.214;6.768;2023-02-18T07:41:45;101643.88;;;10.19;100.00
4972;BME280;2501;51.214;6.768;2023-02-18T07:44:14;101659.13;;;10.36;100.00
4972;BME280;2501;51.214;6.768;2023-02-18T07:46:42;101657.56;;;10.46;99.50
4972;BME280;2501;51.214;6.768;2023-02-18T07:49:15;101653.06;;;10.40;98.64
4972;BME280;2501;51.214;6.768;2023-02-18T07:51:49;101670.91;;;10.18;98.92
4972;BME280;2501;51.214;6.768;2023-02-18T07:54:17;101671.41;;;10.40;97.93
4972;BME280;2501;51.214;6.768;2023-02-18T07:56:46;101669.63;;;10.39;96.51
4972;BME280;2501;51.214;6.768;2023-02-18T07:59:14;101678.31;;;10.35;96.33
4972;BME280;2501;51.214;6.768;2023-02-18T08:01:43;101686.84;;;10.27;96.63
4972;BME280;2501;51.214;6.768;2023-02-18T08:04:12;101682.19;;;10.15;97.01
4972;BME280;2501;51.214;6.768;2023-02-18T08:06:43;101696.00;;;10.08;98.01
4972;BME280;2501;51.214;6.768;2023-02-18T08:09:21;101679.25;;;10.00;98.82
4972;BME280;2501;51.214;6.768;2023-02-18T08:11:49;101682.59;;;9.94;99.50
4972;BME280;2501;51.214;6.768;2023-02-18T08:14:18;101700.47;;;9.74;100.00
4972;BME280;2501;51.214;6.768;2023-02-18T08:16:46;101702.78;;;9.62;100.00
4972;BME280;2501;51.214;6.768;2023-02-18T08:19:15;101701.91;;;9.62;100.00
4972;BME280;2501;51.214;6.768;2023-02-18T08:21:43;101705.56;;;9.34;100.00
4972;BME280;2501;51.214;6.768;2023-02-18T08:24:12;101716.59;;;9.57;100.00
4972;BME280;2501;51.214;6.768;2023-02-18T08:26:43;101717.84;;;9.38;100.00
4972;BME280;2501;51.214;6.768;2023-02-18T08:29:11;101727.94;;;9.23;100.00
4972;BME280;2501;51.214;6.768;2023-02-18T08:31:40;101716.03;;;9.35;100.00
4972;BME280;2501;51.214;6.768;2023-02-18T08:34:08;101705.75;;;9.41;100.00
4972;BME280;2501;51.214;6.768;2023-02-18T08:36:37;101717.72;;;9.32;100.00
4972;BME280;2501;51.214;6.768;2023-02-18T08:39:05;101719.53;;;9.34;100.00
4972;BME280;2501;51.214;6.768;2023-02-18T08:41:34;101713.50;;;9.38;100.00
4972;BME280;2501;51.214;6.768;2023-02-18T08:44:05;101699.53;;;9.38;100.00
4972;BME280;2501;51.214;6.768;2023-02-18T08:46:33;101704.72;;;9.36;100.00
4972;BME280;2501;51.214;6.768;2023-02-18T08:49:03;101705.16;;;9.52;100.00
4972;BME280;2501;51.214;6.768;2023-02-18T08:51:31;101701.34;;;9.40;100.00
4972;BME280;2501;51.214;6.768;2023-02-18T08:54:00;101695.13;;;9.37;100.00
4972;BME280;2501;51.214;6.768;2023-02-18T08:56:29;101694.66;;;9.52;100.00
4972;BME280;2501;51.214;6.768;2023-02-18T08:59:00;101698.56;;;9.33;100.00
4972;BME280;2501;51.214;6.768;2023-02-18T09:01:31;101692.16;;;9.23;100.00
4972;BME280;2501;51.214;6.768;2023-02-18T09:04:00;101691.00;;;9.45;100.00
4972;BME280;2501;51.214;6.768;2023-02-18T09:06:28;101690.84;;;9.39;99.65
4972;BME280;2501;51.214;6.768;2023-02-18T09:08:57;101677.75;;;9.75;97.51
4972;BME280;2501;51.214;6.768;2023-02-18T09:11:25;101673.66;;;9.85;95.97
4972;BME280;2501;51.214;6.768;2023-02-18T09:13:53;101679.84;;;9.90;95.00
4972;BME280;2501;51.214;6.768;2023-02-18T09:16:22;101666.38;;;10.10;93.05
4972;BME280;2501;51.214;6.768;2023-02-18T09:18:55;101677.34;;;9.94;92.84
4972;BME280;2501;51.214;6.768;2023-02-18T09:21:24;101671.25;;;9.95;91.83
4972;BME280;2501;51.214;6.768;2023-02-18T09:23:54;101672.84;;;9.89;91.73
4972;BME280;2501;51.214;6.768;2023-02-18T09:26:22;101669.59;;;9.99;91.09
4972;BME280;2501;51.214;6.768;2023-02-18T09:28:53;101677.50;;;10.00;91.44
4972;BME280;2501;51.214;6.768;2023-02-18T09:31:25;101663.84;;;10.15;90.33
4972;BME280;2501;51.214;6.768;2023-02-18T09:33:59;101662.97;;;10.15;90.61
4972;BME280;2501;51.214;6.768;2023-02-18T09:36:28;101668.38;;;10.21;89.85
4972;BME280;2501;51.214;6.768;2023-02-18T09:39:00;101656.88;;;10.16;89.93
4972;BME280;2501;51.214;6.768;2023-02-18T09:41:36;101665.25;;;9.99;90.57
4972;BME280;2501;51.214;6.768;2023-02-18T09:44:11;101657.38;;;10.37;89.64
4972;BME280;2501;51.214;6.768;2023-02-18T09:46:47;101664.28;;;10.33;88.04
4972;BME280;2501;51.214;6.768;2023-02-18T09:49:22;101655.34;;;10.25;88.05
4972;BME280;2501;51.214;6.768;2023-02-18T09:51:53;101660.56;;;10.24;88.57
4972;BME280;2501;51.214;6.768;2023-02-18T09:54:22;101654.94;;;10.08;88.43
4972;BME280;2501;51.214;6.768;2023-02-18T09:56:52;101662.28;;;10.23;88.87
4972;BME280;2501;51.214;6.768;2023-02-18T09:59:21;101656.41;;;10.33;88.03
4972;BME280;2501;51.214;6.768;2023-02-18T10:01:55;101646.91;;;10.38;87.81
4972;BME280;2501;51.214;6.768;2023-02-18T10:04:33;101641.75;;;10.43;87.84
4972;BME280;2501;51.214;6.768;2023-02-18T10:07:04;101642.59;;;10.42;86.81
4972;BME280;2501;51.214;6.768;2023-02-18T10:09:35;101654.81;;;10.41;86.84
4972;BME280;2501;51.214;6.768;2023-02-18T10:12:12;101642.59;;;10.42;86.57
4972;BME280;2501;51.214;6.768;2023-02-18T10:14:42;101644.84;;;10.24;87.43
4972;BME280;2501;51.214;6.768;2023-02-18T10:17:13;101655.13;;;10.55;87.18
4972;BME280;2501;51.214;6.768;2023-02-18T10:19:47;101631.94;;;10.33;86.92
4972;BME280;2501;51.214;6.768;2023-02-18T10:22:17;101633.78;;;10.37;87.03
4972;BME280;2501;51.214;6.768;2023-02-18T10:24:49;101647.19;;;10.52;86.67
4972;BME280;2501;51.214;6.768;2023-02-18T10:27:24;101650.56;;;10.46;86.46
4972;BME280;2501;51.214;6.768;2023-02-18T10:29:53;101643.31;;;10.33;86.94
4972;BME280;2501;51.214;6.768;2023-02-18T10:32:26;101653.16;;;10.45;87.68
4972;BME280;2501;51.214;6.768;2023-02-18T10:35:02;101647.78;;;10.00;89.09
4972;BME280;2501;51.214;6.768;2023-02-18T10:37:45;101658.53;;;10.12;91.79
4972;BME280;2501;51.214;6.768;2023-02-18T10:40:21;101669.41;;;9.91;93.43
4972;BME280;2501;51.214;6.768;2023-02-18T10:43:00;101670.88;;;9.78;95.14
4972;BME280;2501;51.214;6.768;2023-02-18T10:45:37;101681.22;;;9.74;96.27
4972;BME280;2501;51.214;6.768;2023-02-18T10:48:27;101682.75;;;9.64;97.07
4972;BME280;2501;51.214;6.768;2023-02-18T10:51:12;101687.91;;;9.61;97.79
4972;BME280;2501;51.214;6.768;2023-02-18T10:53:43;101684.78;;;9.76;97.79
4972;BME280;2501;51.214;6.768;2023-02-18T10:56:32;101686.97;;;9.95;97.53
4972;BME280;2501;51.214;6.768;2023-02-18T10:59:08;101685.94;;;9.89;97.43
4972;BME280;2501;51.214;6.768;2023-02-18T11:01:38;101686.78;;;9.86;98.71
4972;BME280;2501;51.214;6.768;2023-02-18T11:04:12;101684.28;;;9.92;98.54
4972;BME280;2501;51.214;6.768;2023-02-18T11:06:46;101682.56;;;9.93;98.68
4972;BME280;2501;51.214;6.768;2023-02-18T11:09:25;101694.28;;;9.72;99.45
4972;BME280;2501;51.214;6.768;2023-02-18T11:12:02;101698.44;;;9.63;100.00
4972;BME280;2501;51.214;6.768;2023-02-18T11:14:43;101700.34;;;9.70;100.00
4972;BME280;2501;51.214;6.768;2023-02-18T11:17:21;101700.34;;;9.70;100.00
4972;BME280;2501;51.214;6.768;2023-02-18T11:19:54;101695.47;;;9.49;100.00
4972;BME280;2501;51.214;6.768;2023-02-18T11:22:28;101695.59;;;9.55;100.00
4972;BME280;2501;51.214;6.768;2023-02-18T11:24:59;101692.94;;;9.52;100.00
4972;BME280;2501;51.214;6.768;2023-02-18T11:27:40;101693.84;;;9.54;100.00
4972;BME280;2501;51.214;6.768;2023-02-18T11:30:18;101706.94;;;9.54;100.00
4972;BME280;2501;51.214;6.768;2023-02-18T11:32:47;101697.72;;;9.35;100.00
4972;BME280;2501;51.214;6.768;2023-02-18T11:35:19;101689.91;;;9.37;100.00
4972;BME280;2501;51.214;6.768;2023-02-18T11:37:50;101686.06;;;9.57;100.00
4972;BME280;2501;51.214;6.768;2023-02-18T11:40:22;101691.63;;;9.69;100.00
4972;BME280;2501;51.214;6.768;2023-02-18T11:43:02;101689.91;;;9.71;100.00
4972;BME280;2501;51.214;6.768;2023-02-18T11:45:32;101678.31;;;9.62;100.00
4972;BME280;2501;51.214;6.768;2023-02-18T11:48:06;101697.66;;;9.67;100.00
4972;BME280;2501;51.214;6.768;2023-02-18T11:50:35;101693.00;;;9.55;100.00
4972;BME280;2501;51.214;6.768;2023-02-18T11:53:28;101697.53;;;9.62;100.00
4972;BME280;2501;51.214;6.768;2023-02-18T11:55:59;101697.81;;;9.38;100.00
4972;BME280;2501;51.214;6.768;2023-02-18T11:58:35;101701.63;;;9.51;100.00
4972;BME280;2501;51.214;6.768;2023-02-18T12:01:09;101685.41;;;9.66;100.00
4972;BME280;2501;51.214;6.768;2023-02-18T12:03:43;101694.16;;;9.66;100.00
4972;BME280;2501;51.214;6.768;2023-02-18T12:06:18;101697.63;;;9.65;100.00
4972;BME280;2501;51.214;6.768;2023-02-18T12:08:53;101684.75;;;9.74;100.00
4972;BME280;2501;51.214;6.768;2023-02-18T12:11:28;101688.63;;;9.56;100.00
4972;BME280;2501;51.214;6.768;2023-02-18T12:13:59;101692.34;;;9.64;100.00
4972;BME280;2501;51.214;6.768;2023-02-18T12:16:34;101687.22;;;9.68;100.00
4972;BME280;2501;51.214;6.768;2023-02-18T12:19:24;101683.47;;;9.59;100.00
4972;BME280;2501;51.214;6.768;2023-02-18T12:22:01;101676.88;;;9.74;100.00
4972;BME280;2501;51.214;6.768;2023-02-18T12:24:47;101677.31;;;9.57;100.00
4972;BME280;2501;51.214;6.768;2023-02-18T12:27:23;101672.13;;;9.58;100.00
4972;BME280;2501;51.214;6.768;2023-02-18T12:30:10;101670.44;;;9.60;100.00
4972;BME280;2501;51.214;6.768;2023-02-18T12:32:50;101677.03;;;9.81;100.00
4972;BME280;2501;51.214;6.768;2023-02-18T12:35:48;101669.75;;;9.67;100.00
4972;BME280;2501;51.214;6.768;2023-02-18T12:38:46;101678.03;;;9.86;100.00
4972;BME280;2501;51.214;6.768;2023-02-18T12:41:37;101679.63;;;9.79;100.00
4972;BME280;2501;51.214;6.768;2023-02-18T12:44:29;101678.88;;;9.85;100.00
4972;BME280;2501;51.214;6.768;2023-02-18T12:53:02;101679.84;;;9.90;100.00
4972;BME280;2501;51.214;6.768;2023-02-18T12:55:54;101670.09;;;9.83;100.00
4972;BME280;2501;51.214;6.768;2023-02-18T12:58:37;101680.06;;;9.61;100.00
4972;BME280;2501;51.214;6.768;2023-02-18T13:01:27;101682.47;;;9.52;100.00
4972;BME280;2501;51.214;6.768;2023-02-18T13:04:11;101677.88;;;9.80;100.00
4972;BME280;2501;51.214;6.768;2023-02-18T13:07:12;101676.78;;;9.71;100.00
4972;BME280;2501;51.214;6.768;2023-02-18T13:09:54;101664.47;;;9.66;100.00
4972;BME280;2501;51.214;6.768;2023-02-18T13:12:30;101677.97;;;9.83;100.00
4972;BME280;2501;51.214;6.768;2023-02-18T13:15:14;101678.94;;;9.88;100.00
4972;BME280;2501;51.214;6.768;2023-02-18T13:17:46;101679.78;;;9.85;100.00
4972;BME280;2501;51.214;6.768;2023-02-18T13:20:20;101674.28;;;9.76;100.00
4972;BME280;2501;51.214;6.768;2023-02-18T13:22:51;101673.53;;;9.80;100.00
4972;BME280;2501;51.214;6.768;2023-02-18T13:25:20;101678.88;;;9.85;100.00
4972;BME280;2501;51.214;6.768;2023-02-18T13:27:54;101687.66;;;9.51;100.00
4972;BME280;2501;51.214;6.768;2023-02-18T13:30:37;101684.22;;;9.53;100.00
4972;BME280;2501;51.214;6.768;2023-02-18T13:33:14;101670.72;;;9.72;100.00
4972;BME280;2501;51.214;6.768;2023-02-18T13:35:50;101673.50;;;9.78;100.00
4972;BME280;2501;51.214;6.768;2023-02-18T13:38:35;101669.63;;;9.63;100.00
4972;BME280;2501;51.214;6.768;2023-02-18T13:41:15;101677.00;;;9.79;100.00
4972;BME280;2501;51.214;6.768;2023-02-18T13:43:44;101669.13;;;9.79;100.00
4972;BME280;2501;51.214;6.768;2023-02-18T13:46:16;101671.78;;;9.81;100.00